sensor_id;sensor_type;location;lat;lon;timestamp;P1;durP1;ratioP1;P2;durP2;ratioP2
77872;SDS011;67068;52.116;4.440;2023-04-16T00:01:21;4.57;;;0.83;;
77872;SDS011;67068;52.116;4.440;2023-04-16T00:03:46;4.27;;;0.90;;
77872;SDS011;67068;52.116;4.440;2023-04-16T00:06:11;5.30;;;0.80;;
77872;SDS011;67068;52.116;4.440;2023-04-16T00:08:37;3.50;;;0.60;;
77872;SDS011;67068;52.116;4.440;2023-04-16T00:11:02;4.07;;;0.63;;
77872;SDS011;67068;52.116;4.440;2023-04-16T00:13:27;2.97;;;0.70;;
77872;SDS011;67068;52.116;4.440;2023-04-16T00:15:52;2.08;;;0.60;;
77872;SDS011;67068;52.116;4.440;2023-04-16T00:18:18;3.90;;;0.80;;
77872;SDS011;67068;52.116;4.440;2023-04-16T00:20:45;4.25;;;0.88;;
77872;SDS011;67068;52.116;4.440;2023-04-16T00:23:10;3.30;;;1.15;;
77872;SDS011;67068;52.116;4.440;2023-04-16T00:25:35;4.23;;;1.10;;
77872;SDS011;67068;52.116;4.440;2023-04-16T00:28:00;5.93;;;0.80;;
77872;SDS011;67068;52.116;4.440;2023-04-16T00:30:26;4.17;;;0.90;;
77872;SDS011;67068;52.116;4.440;2023-04-16T00:32:51;4.43;;;0.80;;
77872;SDS011;67068;52.116;4.440;2023-04-16T00:35:16;4.13;;;0.83;;
77872;SDS011;67068;52.116;4.440;2023-04-16T00:37:41;4.40;;;0.73;;
77872;SDS011;67068;52.116;4.440;2023-04-16T00:40:06;3.97;;;0.63;;
77872;SDS011;67068;52.116;4.440;2023-04-16T00:42:32;3.45;;;0.77;;
77872;SDS011;67068;52.116;4.440;2023-04-16T00:44:57;5.13;;;1.30;;
77872;SDS011;67068;52.116;4.440;2023-04-16T00:47:22;4.67;;;0.83;;
77872;SDS011;67068;52.116;4.440;2023-04-16T00:49:48;4.53;;;0.75;;
77872;SDS011;67068;52.116;4.440;2023-04-16T00:52:13;3.65;;;0.70;;
77872;SDS011;67068;52.116;4.440;2023-04-16T00:54:38;2.90;;;0.70;;
77872;SDS011;67068;52.116;4.440;2023-04-16T00:57:04;2.63;;;0.80;;
77872;SDS011;67068;52.116;4.440;2023-04-16T00:59:30;2.88;;;0.93;;
77872;SDS011;67068;52.116;4.440;2023-04-16T01:01:55;4.17;;;0.73;;
77872;SDS011;67068;52.116;4.440;2023-04-16T01:04:20;4.27;;;0.90;;
77872;SDS011;67068;52.116;4.440;2023-04-16T01:06:45;3.83;;;0.87;;
77872;SDS011;67068;52.116;4.440;2023-04-16T01:09:10;6.23;;;1.00;;
77872;SDS011;67068;52.116;4.440;2023-04-16T01:11:36;5.50;;;1.00;;
77872;SDS011;67068;52.116;4.440;2023-04-16T01:14:02;4.68;;;1.00;;
77872;SDS011;67068;52.116;4.440;2023-04-16T01:16:27;4.30;;;1.07;;
77872;SDS011;67068;52.116;4.440;2023-04-16T01:18:52;3.23;;;0.80;;
77872;SDS011;67068;52.116;4.440;2023-04-16T01:21:17;4.10;;;0.80;;
77872;SDS011;67068;52.116;4.440;2023-04-16T01:23:42;4.23;;;0.70;;
77872;SDS011;67068;52.116;4.440;2023-04-16T01:26:08;3.10;;;0.60;;
77872;SDS011;67068;52.116;4.440;2023-04-16T01:28:33;5.27;;;1.13;;
77872;SDS011;67068;52.116;4.440;2023-04-16T01:30:59;4.75;;;0.90;;
77872;SDS011;67068;52.116;4.440;2023-04-16T01:33:24;3.88;;;0.82;;
77872;SDS011;67068;52.116;4.440;2023-04-16T01:35:50;3.65;;;0.73;;
77872;SDS011;67068;52.116;4.440;2023-04-16T01:38:15;1.50;;;0.60;;
77872;SDS011;67068;52.116;4.440;2023-04-16T01:40:40;4.40;;;0.70;;
77872;SDS011;67068;52.116;4.440;2023-04-16T01:43:05;3.77;;;0.83;;
77872;SDS011;67068;52.116;4.440;2023-04-16T01:45:31;5.03;;;1.00;;
77872;SDS011;67068;52.116;4.440;2023-04-16T01:47:57;3.78;;;0.90;;
77872;SDS011;67068;52.116;4.440;2023-04-16T01:50:22;2.77;;;0.70;;
77872;SDS011;67068;52.116;4.440;2023-04-16T01:52:47;4.30;;;0.87;;
77872;SDS011;67068;52.116;4.440;2023-04-16T01:55:13;3.72;;;0.82;;
77872;SDS011;67068;52.116;4.440;2023-04-16T01:57:38;4.15;;;1.27;;
77872;SDS011;67068;52.116;4.440;2023-04-16T02:00:04;4.90;;;1.00;;
77872;SDS011;67068;52.116;4.440;2023-04-16T02:02:29;6.18;;;0.90;;
77872;SDS011;67068;52.116;4.440;2023-04-16T02:04:54;2.97;;;0.77;;
77872;SDS011;67068;52.116;4.440;2023-04-16T02:07:21;4.20;;;0.90;;
77872;SDS011;67068;52.116;4.440;2023-04-16T02:09:46;4.80;;;0.80;;
77872;SDS011;67068;52.116;4.440;2023-04-16T02:12:11;5.43;;;0.93;;
77872;SDS011;67068;52.116;4.440;2023-04-16T02:14:37;4.53;;;0.88;;
77872;SDS011;67068;52.116;4.440;2023-04-16T02:17:02;5.73;;;0.90;;
77872;SDS011;67068;52.116;4.440;2023-04-16T02:19:28;3.70;;;0.93;;
77872;SDS011;67068;52.116;4.440;2023-04-16T02:21:53;4.57;;;1.00;;
77872;SDS011;67068;52.116;4.440;2023-04-16T02:24:19;4.95;;;1.00;;
77872;SDS011;67068;52.116;4.440;2023-04-16T02:26:44;5.63;;;1.10;;
77872;SDS011;67068;52.116;4.440;2023-04-16T02:29:10;4.40;;;1.23;;
77872;SDS011;67068;52.116;4.440;2023-04-16T02:31:35;4.23;;;0.93;;
77872;SDS011;67068;52.116;4.440;2023-04-16T02:34:00;5.80;;;0.90;;
77872;SDS011;67068;52.116;4.440;2023-04-16T02:36:26;6.35;;;1.15;;
77872;SDS011;67068;52.116;4.440;2023-04-16T02:38:51;5.68;;;1.05;;
77872;SDS011;67068;52.116;4.440;2023-04-16T02:41:16;4.97;;;0.80;;
77872;SDS011;67068;52.116;4.440;2023-04-16T02:43:42;2.97;;;0.70;;
77872;SDS011;67068;52.116;4.440;2023-04-16T02:46:07;4.40;;;0.87;;
77872;SDS011;67068;52.116;4.440;2023-04-16T02:48:32;6.73;;;1.00;;
77872;SDS011;67068;52.116;4.440;2023-04-16T02:50:57;5.33;;;1.27;;
77872;SDS011;67068;52.116;4.440;2023-04-16T02:53:22;4.60;;;0.80;;
77872;SDS011;67068;52.116;4.440;2023-04-16T02:55:49;5.47;;;0.97;;
77872;SDS011;67068;52.116;4.440;2023-04-16T02:58:16;5.20;;;1.08;;
77872;SDS011;67068;52.116;4.440;2023-04-16T03:00:41;6.13;;;1.00;;
77872;SDS011;67068;52.116;4.440;2023-04-16T03:03:06;4.97;;;0.90;;
77872;SDS011;67068;52.116;4.440;2023-04-16T03:05:32;4.87;;;0.93;;
77872;SDS011;67068;52.116;4.440;2023-04-16T03:07:57;6.00;;;1.10;;
77872;SDS011;67068;52.116;4.440;2023-04-16T03:10:22;6.30;;;1.20;;
77872;SDS011;67068;52.116;4.440;2023-04-16T03:12:48;5.10;;;0.90;;
77872;SDS011;67068;52.116;4.440;2023-04-16T03:15:13;4.83;;;1.00;;
77872;SDS011;67068;52.116;4.440;2023-04-16T03:17:38;6.10;;;1.13;;
77872;SDS011;67068;52.116;4.440;2023-04-16T03:20:03;6.07;;;1.10;;
77872;SDS011;67068;52.116;4.440;2023-04-16T03:22:29;4.50;;;0.93;;
77872;SDS011;67068;52.116;4.440;2023-04-16T03:24:54;6.67;;;1.00;;
77872;SDS011;67068;52.116;4.440;2023-04-16T03:27:19;5.60;;;1.20;;
77872;SDS011;67068;52.116;4.440;2023-04-16T03:29:45;3.60;;;1.00;;
77872;SDS011;67068;52.116;4.440;2023-04-16T03:32:10;5.50;;;1.37;;
77872;SDS011;67068;52.116;4.440;2023-04-16T03:34:36;6.47;;;1.02;;
77872;SDS011;67068;52.116;4.440;2023-04-16T03:37:01;4.73;;;1.00;;
77872;SDS011;67068;52.116;4.440;2023-04-16T03:39:27;6.23;;;1.50;;
77872;SDS011;67068;52.116;4.440;2023-04-16T03:41:52;6.57;;;1.03;;
77872;SDS011;67068;52.116;4.440;2023-04-16T03:44:17;4.70;;;1.10;;
77872;SDS011;67068;52.116;4.440;2023-04-16T03:46:42;4.60;;;1.30;;
77872;SDS011;67068;52.116;4.440;2023-04-16T03:49:07;5.97;;;1.07;;
77872;SDS011;67068;52.116;4.440;2023-04-16T03:51:33;5.13;;;1.10;;
77872;SDS011;67068;52.116;4.440;2023-04-16T03:53:58;5.47;;;1.27;;
77872;SDS011;67068;52.116;4.440;2023-04-16T03:56:23;6.00;;;1.30;;
77872;SDS011;67068;52.116;4.440;2023-04-16T03:58:48;5.90;;;1.20;;
77872;SDS011;67068;52.116;4.440;2023-04-16T04:01:14;3.93;;;1.00;;
77872;SDS011;67068;52.116;4.440;2023-04-16T04:03:39;3.37;;;0.90;;
77872;SDS011;67068;52.116;4.440;2023-04-16T04:06:07;4.32;;;0.98;;
77872;SDS011;67068;52.116;4.440;2023-04-16T04:10:58;5.30;;;1.10;;
77872;SDS011;67068;52.116;4.440;2023-04-16T04:13:23;3.27;;;0.90;;
77872;SDS011;67068;52.116;4.440;2023-04-16T04:15:48;7.20;;;1.17;;
77872;SDS011;67068;52.116;4.440;2023-04-16T04:18:14;4.53;;;0.90;;
77872;SDS011;67068;52.116;4.440;2023-04-16T04:20:39;4.83;;;1.30;;
77872;SDS011;67068;52.116;4.440;2023-04-16T04:23:05;4.70;;;1.00;;
77872;SDS011;67068;52.116;4.440;2023-04-16T04:25:30;5.27;;;1.00;;
77872;SDS011;67068;52.116;4.440;2023-04-16T04:27:55;5.45;;;1.10;;
77872;SDS011;67068;52.116;4.440;2023-04-16T04:30:21;5.73;;;1.10;;
77872;SDS011;67068;52.116;4.440;2023-04-16T04:32:46;4.47;;;1.10;;
77872;SDS011;67068;52.116;4.440;2023-04-16T04:35:11;4.43;;;1.10;;
77872;SDS011;67068;52.116;4.440;2023-04-16T04:37:36;7.20;;;1.10;;
77872;SDS011;67068;52.116;4.440;2023-04-16T04:40:01;4.40;;;1.20;;
77872;SDS011;67068;52.116;4.440;2023-04-16T04:42:27;4.55;;;1.00;;
77872;SDS011;67068;52.116;4.440;2023-04-16T04:44:52;5.37;;;1.30;;
77872;SDS011;67068;52.116;4.440;2023-04-16T04:47:18;5.47;;;1.10;;
77872;SDS011;67068;52.116;4.440;2023-04-16T04:49:43;4.70;;;1.20;;
77872;SDS011;67068;52.116;4.440;2023-04-16T04:52:09;5.63;;;1.38;;
77872;SDS011;67068;52.116;4.440;2023-04-16T04:54:35;3.92;;;1.00;;
77872;SDS011;67068;52.116;4.440;2023-04-16T04:57:00;4.80;;;1.00;;
77872;SDS011;67068;52.116;4.440;2023-04-16T04:59:26;5.68;;;1.33;;
77872;SDS011;67068;52.116;4.440;2023-04-16T05:01:51;4.73;;;0.80;;
77872;SDS011;67068;52.116;4.440;2023-04-16T05:04:16;4.80;;;1.07;;
77872;SDS011;67068;52.116;4.440;2023-04-16T05:06:42;4.63;;;0.90;;
77872;SDS011;67068;52.116;4.440;2023-04-16T05:09:07;6.00;;;1.02;;
77872;SDS011;67068;52.116;4.440;2023-04-16T05:11:39;3.45;;;0.95;;
77872;SDS011;67068;52.116;4.440;2023-04-16T05:14:04;6.82;;;1.10;;
77872;SDS011;67068;52.116;4.440;2023-04-16T05:16:29;5.80;;;1.20;;
77872;SDS011;67068;52.116;4.440;2023-04-16T05:18:55;4.60;;;1.40;;
77872;SDS011;67068;52.116;4.440;2023-04-16T05:21:20;4.90;;;0.90;;
77872;SDS011;67068;52.116;4.440;2023-04-16T05:23:45;5.68;;;1.10;;
77872;SDS011;67068;52.116;4.440;2023-04-16T05:26:11;4.77;;;1.10;;
77872;SDS011;67068;52.116;4.440;2023-04-16T05:28:36;5.00;;;1.33;;
77872;SDS011;67068;52.116;4.440;2023-04-16T05:31:01;4.27;;;1.00;;
77872;SDS011;67068;52.116;4.440;2023-04-16T05:33:26;5.87;;;1.10;;
77872;SDS011;67068;52.116;4.440;2023-04-16T05:35:51;5.53;;;1.10;;
77872;SDS011;67068;52.116;4.440;2023-04-16T05:38:17;5.17;;;1.00;;
77872;SDS011;67068;52.116;4.440;2023-04-16T05:40:42;3.37;;;0.90;;
77872;SDS011;67068;52.116;4.440;2023-04-16T05:43:07;2.83;;;0.80;;
77872;SDS011;67068;52.116;4.440;2023-04-16T05:45:32;3.13;;;0.87;;
77872;SDS011;67068;52.116;4.440;2023-04-16T05:48:03;6.25;;;1.10;;
77872;SDS011;67068;52.116;4.440;2023-04-16T05:50:28;5.03;;;0.90;;
77872;SDS011;67068;52.116;4.440;2023-04-16T05:52:54;4.20;;;0.83;;
77872;SDS011;67068;52.116;4.440;2023-04-16T05:55:19;4.43;;;1.25;;
77872;SDS011;67068;52.116;4.440;2023-04-16T05:57:44;5.45;;;1.15;;
77872;SDS011;67068;52.116;4.440;2023-04-16T06:00:10;5.90;;;1.08;;
77872;SDS011;67068;52.116;4.440;2023-04-16T06:02:35;5.18;;;1.10;;
77872;SDS011;67068;52.116;4.440;2023-04-16T06:05:01;3.50;;;0.73;;
77872;SDS011;67068;52.116;4.440;2023-04-16T06:07:26;2.70;;;0.80;;
77872;SDS011;67068;52.116;4.440;2023-04-16T06:09:51;7.50;;;1.13;;
77872;SDS011;67068;52.116;4.440;2023-04-16T06:12:16;6.10;;;1.03;;
77872;SDS011;67068;52.116;4.440;2023-04-16T06:14:41;5.67;;;1.20;;
77872;SDS011;67068;52.116;4.440;2023-04-16T06:17:07;6.23;;;1.30;;
77872;SDS011;67068;52.116;4.440;2023-04-16T06:19:32;4.22;;;1.25;;
77872;SDS011;67068;52.116;4.440;2023-04-16T06:21:57;3.60;;;0.90;;
77872;SDS011;67068;52.116;4.440;2023-04-16T06:24:23;4.47;;;0.90;;
77872;SDS011;67068;52.116;4.440;2023-04-16T06:26:48;6.43;;;1.10;;
77872;SDS011;67068;52.116;4.440;2023-04-16T06:29:13;7.70;;;1.13;;
77872;SDS011;67068;52.116;4.440;2023-04-16T06:31:39;5.10;;;1.00;;
77872;SDS011;67068;52.116;4.440;2023-04-16T06:34:04;6.95;;;1.27;;
77872;SDS011;67068;52.116;4.440;2023-04-16T06:36:30;5.37;;;0.97;;
77872;SDS011;67068;52.116;4.440;2023-04-16T06:38:55;5.43;;;1.20;;
77872;SDS011;67068;52.116;4.440;2023-04-16T06:41:20;6.00;;;1.27;;
77872;SDS011;67068;52.116;4.440;2023-04-16T06:43:46;5.68;;;1.00;;
77872;SDS011;67068;52.116;4.440;2023-04-16T06:46:12;4.83;;;0.97;;
77872;SDS011;67068;52.116;4.440;2023-04-16T06:48:37;5.00;;;1.20;;
77872;SDS011;67068;52.116;4.440;2023-04-16T06:51:02;4.13;;;0.80;;
77872;SDS011;67068;52.116;4.440;2023-04-16T06:53:27;5.03;;;1.10;;
77872;SDS011;67068;52.116;4.440;2023-04-16T06:55:53;6.17;;;1.30;;
77872;SDS011;67068;52.116;4.440;2023-04-16T06:58:18;2.80;;;0.83;;
77872;SDS011;67068;52.116;4.440;2023-04-16T07:00:43;4.27;;;1.20;;
77872;SDS011;67068;52.116;4.440;2023-04-16T07:03:09;4.68;;;1.08;;
77872;SDS011;67068;52.116;4.440;2023-04-16T07:05:34;4.10;;;1.00;;
77872;SDS011;67068;52.116;4.440;2023-04-16T07:07:59;7.53;;;1.23;;
77872;SDS011;67068;52.116;4.440;2023-04-16T07:10:24;5.32;;;1.02;;
77872;SDS011;67068;52.116;4.440;2023-04-16T07:12:50;5.03;;;1.10;;
77872;SDS011;67068;52.116;4.440;2023-04-16T07:15:15;5.93;;;1.10;;
77872;SDS011;67068;52.116;4.440;2023-04-16T07:17:40;5.07;;;1.10;;
77872;SDS011;67068;52.116;4.440;2023-04-16T07:20:06;5.80;;;1.40;;
77872;SDS011;67068;52.116;4.440;2023-04-16T07:22:31;5.20;;;1.15;;
77872;SDS011;67068;52.116;4.440;2023-04-16T07:24:56;3.57;;;0.90;;
77872;SDS011;67068;52.116;4.440;2023-04-16T07:27:22;3.93;;;0.90;;
77872;SDS011;67068;52.116;4.440;2023-04-16T07:29:47;3.23;;;1.00;;
77872;SDS011;67068;52.116;4.440;2023-04-16T07:32:14;4.22;;;1.00;;
77872;SDS011;67068;52.116;4.440;2023-04-16T07:34:39;6.32;;;1.33;;
77872;SDS011;67068;52.116;4.440;2023-04-16T07:37:04;4.63;;;1.07;;
77872;SDS011;67068;52.116;4.440;2023-04-16T07:39:30;4.73;;;1.03;;
77872;SDS011;67068;52.116;4.440;2023-04-16T07:41:55;6.63;;;1.20;;
77872;SDS011;67068;52.116;4.440;2023-04-16T07:44:20;10.33;;;1.20;;
77872;SDS011;67068;52.116;4.440;2023-04-16T07:46:45;5.17;;;1.07;;
77872;SDS011;67068;52.116;4.440;2023-04-16T07:49:10;4.90;;;1.00;;
77872;SDS011;67068;52.116;4.440;2023-04-16T07:51:36;5.60;;;1.13;;
77872;SDS011;67068;52.116;4.440;2023-04-16T07:54:01;5.77;;;1.20;;
77872;SDS011;67068;52.116;4.440;2023-04-16T07:56:26;4.88;;;1.10;;
77872;SDS011;67068;52.116;4.440;2023-04-16T07:58:51;4.03;;;1.17;;
77872;SDS011;67068;52.116;4.440;2023-04-16T08:01:17;5.95;;;1.30;;
77872;SDS011;67068;52.116;4.440;2023-04-16T08:03:42;3.67;;;1.10;;
77872;SDS011;67068;52.116;4.440;2023-04-16T08:06:07;4.23;;;1.00;;
77872;SDS011;67068;52.116;4.440;2023-04-16T08:08:32;5.73;;;1.10;;
77872;SDS011;67068;52.116;4.440;2023-04-16T08:10:58;5.53;;;1.20;;
77872;SDS011;67068;52.116;4.440;2023-04-16T08:13:24;6.43;;;1.35;;
77872;SDS011;67068;52.116;4.440;2023-04-16T08:15:49;3.92;;;1.13;;
77872;SDS011;67068;52.116;4.440;2023-04-16T08:18:15;5.00;;;1.17;;
77872;SDS011;67068;52.116;4.440;2023-04-16T08:20:40;6.37;;;1.30;;
77872;SDS011;67068;52.116;4.440;2023-04-16T08:23:05;3.25;;;0.90;;
77872;SDS011;67068;52.116;4.440;2023-04-16T08:25:31;9.27;;;1.20;;
77872;SDS011;67068;52.116;4.440;2023-04-16T08:27:56;5.10;;;1.20;;
77872;SDS011;67068;52.116;4.440;2023-04-16T08:30:21;4.73;;;1.10;;
77872;SDS011;67068;52.116;4.440;2023-04-16T08:32:46;3.23;;;0.90;;
77872;SDS011;67068;52.116;4.440;2023-04-16T08:35:12;4.97;;;1.10;;
77872;SDS011;67068;52.116;4.440;2023-04-16T08:37:37;4.43;;;1.23;;
77872;SDS011;67068;52.116;4.440;2023-04-16T08:40:02;3.50;;;1.30;;
77872;SDS011;67068;52.116;4.440;2023-04-16T08:42:38;4.47;;;1.07;;
77872;SDS011;67068;52.116;4.440;2023-04-16T08:45:14;4.25;;;1.25;;
77872;SDS011;67068;52.116;4.440;2023-04-16T08:47:40;5.45;;;1.38;;
77872;SDS011;67068;52.116;4.440;2023-04-16T08:50:09;5.35;;;1.25;;
77872;SDS011;67068;52.116;4.440;2023-04-16T08:52:36;5.50;;;1.25;;
77872;SDS011;67068;52.116;4.440;2023-04-16T08:57:28;5.50;;;1.40;;
77872;SDS011;67068;52.116;4.440;2023-04-16T08:59:54;5.55;;;1.17;;
77872;SDS011;67068;52.116;4.440;2023-04-16T09:02:19;4.78;;;1.20;;
77872;SDS011;67068;52.116;4.440;2023-04-16T09:04:45;5.13;;;1.20;;
77872;SDS011;67068;52.116;4.440;2023-04-16T09:07:10;5.97;;;1.50;;
77872;SDS011;67068;52.116;4.440;2023-04-16T09:09:37;5.18;;;1.10;;
77872;SDS011;67068;52.116;4.440;2023-04-16T09:12:02;3.72;;;1.10;;
77872;SDS011;67068;52.116;4.440;2023-04-16T09:14:28;4.78;;;1.23;;
77872;SDS011;67068;52.116;4.440;2023-04-16T09:16:54;4.60;;;1.10;;
77872;SDS011;67068;52.116;4.440;2023-04-16T09:19:20;6.78;;;1.40;;
77872;SDS011;67068;52.116;4.440;2023-04-16T09:21:46;5.83;;;1.27;;
77872;SDS011;67068;52.116;4.440;2023-04-16T09:24:12;5.20;;;1.20;;
77872;SDS011;67068;52.116;4.440;2023-04-16T09:26:37;6.38;;;1.35;;
77872;SDS011;67068;52.116;4.440;2023-04-16T09:29:02;5.15;;;1.38;;
77872;SDS011;67068;52.116;4.440;2023-04-16T09:31:28;6.43;;;1.33;;
77872;SDS011;67068;52.116;4.440;2023-04-16T09:36:27;7.25;;;1.40;;
77872;SDS011;67068;52.116;4.440;2023-04-16T09:38:53;6.80;;;1.55;;
77872;SDS011;67068;52.116;4.440;2023-04-16T09:41:18;5.68;;;1.30;;
77872;SDS011;67068;52.116;4.440;2023-04-16T09:43:48;6.43;;;1.52;;
77872;SDS011;67068;52.116;4.440;2023-04-16T09:46:17;4.78;;;1.25;;
77872;SDS011;67068;52.116;4.440;2023-04-16T09:48:42;4.30;;;1.20;;
77872;SDS011;67068;52.116;4.440;2023-04-16T09:51:09;7.10;;;1.77;;
77872;SDS011;67068;52.116;4.440;2023-04-16T09:53:34;6.60;;;1.43;;
77872;SDS011;67068;52.116;4.440;2023-04-16T09:56:01;7.95;;;1.73;;
77872;SDS011;67068;52.116;4.440;2023-04-16T09:58:27;6.95;;;1.70;;
77872;SDS011;67068;52.116;4.440;2023-04-16T10:03:33;6.43;;;1.33;;
77872;SDS011;67068;52.116;4.440;2023-04-16T10:06:12;6.68;;;1.55;;
77872;SDS011;67068;52.116;4.440;2023-04-16T10:08:41;5.68;;;1.70;;
77872;SDS011;67068;52.116;4.440;2023-04-16T10:11:07;7.47;;;1.70;;
77872;SDS011;67068;52.116;4.440;2023-04-16T10:13:32;6.70;;;1.50;;
77872;SDS011;67068;52.116;4.440;2023-04-16T10:15:57;7.10;;;1.60;;
77872;SDS011;67068;52.116;4.440;2023-04-16T10:18:23;6.88;;;1.90;;
77872;SDS011;67068;52.116;4.440;2023-04-16T10:20:49;7.32;;;1.67;;
77872;SDS011;67068;52.116;4.440;2023-04-16T10:23:14;5.35;;;1.40;;
77872;SDS011;67068;52.116;4.440;2023-04-16T10:25:40;6.32;;;1.90;;
77872;SDS011;67068;52.116;4.440;2023-04-16T10:28:06;7.80;;;1.60;;
77872;SDS011;67068;52.116;4.440;2023-04-16T10:30:33;5.97;;;1.50;;
77872;SDS011;67068;52.116;4.440;2023-04-16T10:32:58;6.85;;;1.52;;
77872;SDS011;67068;52.116;4.440;2023-04-16T10:35:24;5.95;;;1.80;;
77872;SDS011;67068;52.116;4.440;2023-04-16T10:37:50;6.43;;;1.50;;
77872;SDS011;67068;52.116;4.440;2023-04-16T10:40:23;8.13;;;2.03;;
77872;SDS011;67068;52.116;4.440;2023-04-16T10:42:55;5.63;;;1.40;;
77872;SDS011;67068;52.116;4.440;2023-04-16T10:45:25;6.25;;;1.73;;
77872;SDS011;67068;52.116;4.440;2023-04-16T10:47:50;6.68;;;1.75;;
77872;SDS011;67068;52.116;4.440;2023-04-16T10:50:15;5.83;;;1.60;;
77872;SDS011;67068;52.116;4.440;2023-04-16T10:52:40;4.80;;;1.47;;
77872;SDS011;67068;52.116;4.440;2023-04-16T10:55:06;6.13;;;1.47;;
77872;SDS011;67068;52.116;4.440;2023-04-16T10:57:32;6.03;;;1.45;;
77872;SDS011;67068;52.116;4.440;2023-04-16T10:59:57;6.67;;;1.53;;
77872;SDS011;67068;52.116;4.440;2023-04-16T11:02:24;7.65;;;1.70;;
77872;SDS011;67068;52.116;4.440;2023-04-16T11:04:52;5.30;;;1.48;;
77872;SDS011;67068;52.116;4.440;2023-04-16T11:07:21;5.25;;;1.45;;
77872;SDS011;67068;52.116;4.440;2023-04-16T11:09:56;8.18;;;1.70;;
77872;SDS011;67068;52.116;4.440;2023-04-16T11:17:26;6.50;;;1.75;;
77872;SDS011;67068;52.116;4.440;2023-04-16T11:19:51;6.43;;;1.67;;
77872;SDS011;67068;52.116;4.440;2023-04-16T11:22:16;7.33;;;1.80;;
77872;SDS011;67068;52.116;4.440;2023-04-16T11:24:42;6.97;;;2.07;;
77872;SDS011;67068;52.116;4.440;2023-04-16T11:27:08;6.43;;;1.70;;
77872;SDS011;67068;52.116;4.440;2023-04-16T11:29:33;8.00;;;2.37;;
77872;SDS011;67068;52.116;4.440;2023-04-16T11:31:58;8.63;;;1.77;;
77872;SDS011;67068;52.116;4.440;2023-04-16T11:34:24;6.77;;;1.63;;
77872;SDS011;67068;52.116;4.440;2023-04-16T11:36:49;5.68;;;1.60;;
77872;SDS011;67068;52.116;4.440;2023-04-16T11:39:15;6.22;;;1.60;;
77872;SDS011;67068;52.116;4.440;2023-04-16T11:41:44;8.15;;;1.73;;
77872;SDS011;67068;52.116;4.440;2023-04-16T11:46:41;6.75;;;1.65;;
77872;SDS011;67068;52.116;4.440;2023-04-16T11:49:06;7.00;;;1.80;;
77872;SDS011;67068;52.116;4.440;2023-04-16T11:51:32;8.83;;;1.73;;
77872;SDS011;67068;52.116;4.440;2023-04-16T11:53:57;6.80;;;1.70;;
77872;SDS011;67068;52.116;4.440;2023-04-16T11:56:29;8.25;;;1.63;;
77872;SDS011;67068;52.116;4.440;2023-04-16T11:59:16;6.90;;;1.58;;
77872;SDS011;67068;52.116;4.440;2023-04-16T12:01:41;27.30;;;8.77;;
77872;SDS011;67068;52.116;4.440;2023-04-16T12:04:06;15.32;;;4.85;;
77872;SDS011;67068;52.116;4.440;2023-04-16T12:06:32;16.83;;;4.75;;
77872;SDS011;67068;52.116;4.440;2023-04-16T12:08:57;13.97;;;2.83;;
77872;SDS011;67068;52.116;4.440;2023-04-16T12:11:39;13.70;;;2.97;;
77872;SDS011;67068;52.116;4.440;2023-04-16T12:16:32;13.85;;;3.05;;
77872;SDS011;67068;52.116;4.440;2023-04-16T12:18:58;11.20;;;3.20;;
77872;SDS011;67068;52.116;4.440;2023-04-16T12:21:29;11.82;;;3.10;;
77872;SDS011;67068;52.116;4.440;2023-04-16T12:23:59;37.50;;;24.95;;
77872;SDS011;67068;52.116;4.440;2023-04-16T12:26:24;35.83;;;23.57;;
77872;SDS011;67068;52.116;4.440;2023-04-16T12:28:50;35.28;;;21.25;;
77872;SDS011;67068;52.116;4.440;2023-04-16T12:31:15;56.77;;;32.90;;
77872;SDS011;67068;52.116;4.440;2023-04-16T12:33:41;45.83;;;28.27;;
77872;SDS011;67068;52.116;4.440;2023-04-16T12:36:16;44.63;;;24.67;;
77872;SDS011;67068;52.116;4.440;2023-04-16T12:38:41;35.90;;;20.20;;
77872;SDS011;67068;52.116;4.440;2023-04-16T12:41:06;32.57;;;19.03;;
77872;SDS011;67068;52.116;4.440;2023-04-16T12:43:32;33.20;;;17.90;;
77872;SDS011;67068;52.116;4.440;2023-04-16T12:45:57;30.80;;;15.10;;
77872;SDS011;67068;52.116;4.440;2023-04-16T12:48:22;28.40;;;14.03;;
77872;SDS011;67068;52.116;4.440;2023-04-16T12:50:47;27.77;;;14.07;;
77872;SDS011;67068;52.116;4.440;2023-04-16T12:53:13;26.33;;;14.00;;
77872;SDS011;67068;52.116;4.440;2023-04-16T12:55:38;27.00;;;13.57;;
77872;SDS011;67068;52.116;4.440;2023-04-16T12:58:03;26.67;;;12.73;;
77872;SDS011;67068;52.116;4.440;2023-04-16T13:00:28;24.10;;;12.13;;
77872;SDS011;67068;52.116;4.440;2023-04-16T13:02:53;27.30;;;13.07;;
77872;SDS011;67068;52.116;4.440;2023-04-16T13:05:19;23.83;;;11.70;;
77872;SDS011;67068;52.116;4.440;2023-04-16T13:07:44;22.92;;;12.00;;
77872;SDS011;67068;52.116;4.440;2023-04-16T13:10:09;22.33;;;10.63;;
77872;SDS011;67068;52.116;4.440;2023-04-16T13:12:35;21.67;;;10.60;;
77872;SDS011;67068;52.116;4.440;2023-04-16T13:15:00;19.70;;;10.00;;
77872;SDS011;67068;52.116;4.440;2023-04-16T13:17:26;175.23;;;19.53;;
77872;SDS011;67068;52.116;4.440;2023-04-16T13:19:51;30.60;;;10.00;;
77872;SDS011;67068;52.116;4.440;2023-04-16T13:22:16;29.27;;;9.57;;
77872;SDS011;67068;52.116;4.440;2023-04-16T13:24:41;27.50;;;9.70;;
77872;SDS011;67068;52.116;4.440;2023-04-16T13:27:08;22.73;;;9.23;;
77872;SDS011;67068;52.116;4.440;2023-04-16T13:29:33;24.42;;;9.38;;
77872;SDS011;67068;52.116;4.440;2023-04-16T13:32:00;22.80;;;9.48;;
77872;SDS011;67068;52.116;4.440;2023-04-16T13:34:25;18.50;;;7.93;;
77872;SDS011;67068;52.116;4.440;2023-04-16T13:36:51;22.47;;;8.47;;
77872;SDS011;67068;52.116;4.440;2023-04-16T13:39:16;26.53;;;8.33;;
77872;SDS011;67068;52.116;4.440;2023-04-16T13:41:41;15.20;;;6.80;;
77872;SDS011;67068;52.116;4.440;2023-04-16T13:44:07;24.45;;;10.07;;
77872;SDS011;67068;52.116;4.440;2023-04-16T13:46:32;20.47;;;10.67;;
77872;SDS011;67068;52.116;4.440;2023-04-16T13:48:58;49.15;;;17.45;;
77872;SDS011;67068;52.116;4.440;2023-04-16T13:51:23;27.90;;;11.95;;
77872;SDS011;67068;52.116;4.440;2023-04-16T13:53:48;36.77;;;11.17;;
77872;SDS011;67068;52.116;4.440;2023-04-16T13:56:13;18.87;;;7.97;;
77872;SDS011;67068;52.116;4.440;2023-04-16T13:58:39;30.73;;;10.37;;
77872;SDS011;67068;52.116;4.440;2023-04-16T14:01:05;26.40;;;9.18;;
77872;SDS011;67068;52.116;4.440;2023-04-16T14:03:30;24.33;;;10.07;;
77872;SDS011;67068;52.116;4.440;2023-04-16T14:06:01;46.15;;;32.03;;
77872;SDS011;67068;52.116;4.440;2023-04-16T14:08:26;19.38;;;8.65;;
77872;SDS011;67068;52.116;4.440;2023-04-16T14:10:51;16.13;;;7.50;;
77872;SDS011;67068;52.116;4.440;2023-04-16T14:13:16;18.50;;;7.07;;
77872;SDS011;67068;52.116;4.440;2023-04-16T14:15:41;15.43;;;5.90;;
77872;SDS011;67068;52.116;4.440;2023-04-16T14:18:07;14.50;;;5.68;;
77872;SDS011;67068;52.116;4.440;2023-04-16T14:20:32;17.40;;;6.67;;
77872;SDS011;67068;52.116;4.440;2023-04-16T14:22:57;15.50;;;6.07;;
77872;SDS011;67068;52.116;4.440;2023-04-16T14:25:23;18.07;;;6.30;;
77872;SDS011;67068;52.116;4.440;2023-04-16T14:27:48;14.07;;;5.03;;
77872;SDS011;67068;52.116;4.440;2023-04-16T14:30:13;14.98;;;5.43;;
77872;SDS011;67068;52.116;4.440;2023-04-16T14:32:39;14.80;;;5.40;;
77872;SDS011;67068;52.116;4.440;2023-04-16T14:35:04;23.92;;;7.82;;
77872;SDS011;67068;52.116;4.440;2023-04-16T14:37:30;18.85;;;5.78;;
77872;SDS011;67068;52.116;4.440;2023-04-16T14:39:55;17.43;;;6.00;;
77872;SDS011;67068;52.116;4.440;2023-04-16T14:42:21;15.83;;;5.93;;
77872;SDS011;67068;52.116;4.440;2023-04-16T14:44:46;15.75;;;5.30;;
77872;SDS011;67068;52.116;4.440;2023-04-16T14:47:11;11.85;;;4.65;;
77872;SDS011;67068;52.116;4.440;2023-04-16T14:49:37;12.17;;;4.57;;
77872;SDS011;67068;52.116;4.440;2023-04-16T14:52:02;12.93;;;4.50;;
77872;SDS011;67068;52.116;4.440;2023-04-16T14:54:29;13.70;;;5.05;;